createdAt,value
2018-10-03T00:02:21.436Z,11.00
2018-10-03T00:04:49.825Z,11.00
2018-10-03T00:07:18.205Z,11.00
2018-10-03T00:09:46.624Z,10.90
2018-10-03T00:12:14.990Z,10.90
2018-10-03T00:14:43.378Z,10.80
2018-10-03T00:17:11.760Z,10.80
2018-10-03T00:19:40.211Z,10.80
2018-10-03T00:22:08.958Z,10.80
2018-10-03T00:24:37.315Z,10.80
2018-10-03T00:27:05.783Z,10.80
2018-10-03T00:29:34.205Z,10.80
2018-10-03T00:32:02.541Z,10.80
2018-10-03T00:34:30.918Z,10.70
2018-10-03T00:36:59.269Z,10.80
2018-10-03T00:39:27.683Z,10.80
2018-10-03T00:41:56.060Z,10.70
2018-10-03T00:44:24.493Z,10.70
2018-10-03T00:46:52.873Z,10.70
2018-10-03T00:49:21.276Z,10.60
2018-10-03T00:51:49.611Z,10.60
2018-10-03T00:54:17.951Z,10.60
2018-10-03T00:56:46.867Z,10.60
2018-10-03T00:59:15.281Z,10.60
2018-10-03T01:01:43.664Z,10.60
2018-10-03T01:04:12.091Z,10.70
2018-10-03T01:06:40.826Z,10.70
2018-10-03T01:09:09.302Z,10.70
2018-10-03T01:11:37.720Z,10.70
2018-10-03T01:14:06.476Z,10.70
2018-10-03T01:16:34.852Z,10.70
2018-10-03T01:19:03.256Z,10.70
2018-10-03T01:21:31.821Z,10.70
2018-10-03T01:24:00.257Z,10.70
2018-10-03T01:26:28.665Z,10.60
2018-10-03T01:28:57.057Z,10.50
2018-10-03T01:31:25.432Z,10.40
2018-10-03T01:33:53.771Z,10.30
2018-10-03T01:36:22.121Z,10.20
2018-10-03T01:38:50.475Z,10.20
2018-10-03T01:41:18.836Z,10.20
2018-10-03T01:43:47.155Z,10.20
2018-10-03T01:46:15.594Z,10.20
2018-10-03T01:48:43.984Z,10.10
2018-10-03T01:51:12.371Z,10.10
2018-10-03T01:53:40.883Z,10.10
2018-10-03T01:56:09.254Z,10.10
2018-10-03T01:58:37.584Z,10.10
2018-10-03T02:01:05.983Z,10.10
2018-10-03T02:03:34.375Z,10.10
2018-10-03T02:06:02.727Z,10.10
2018-10-03T02:08:31.105Z,10.10
2018-10-03T02:10:59.502Z,10.10
2018-10-03T02:13:27.957Z,10.10
2018-10-03T02:15:56.323Z,10.10
2018-10-03T02:18:24.658Z,10.10
2018-10-03T02:20:53.045Z,10.20
2018-10-03T02:23:21.419Z,10.20
2018-10-03T02:25:49.811Z,10.20
2018-10-03T02:28:18.195Z,10.20
2018-10-03T02:30:46.565Z,10.10
2018-10-03T02:33:14.914Z,10.10
2018-10-03T02:35:43.278Z,10.20
2018-10-03T02:38:11.675Z,10.20
2018-10-03T02:40:40.047Z,10.20
2018-10-03T02:43:08.444Z,10.10
2018-10-03T02:45:36.821Z,10.20
2018-10-03T02:48:05.245Z,10.20
2018-10-03T02:50:33.634Z,10.20
2018-10-03T02:53:02.086Z,10.20
2018-10-03T02:55:30.473Z,10.20
2018-10-03T02:57:58.864Z,10.20
2018-10-03T03:00:27.248Z,10.20
2018-10-03T03:02:55.601Z,10.20
2018-10-03T03:05:23.986Z,10.10
2018-10-03T03:07:52.409Z,10.10
2018-10-03T03:10:20.793Z,10.10
2018-10-03T03:12:49.143Z,10.10
2018-10-03T03:15:17.522Z,10.10
2018-10-03T03:20:20.609Z,10.10
2018-10-03T03:22:49.057Z,10.10
2018-10-03T03:25:17.519Z,10.00
2018-10-03T03:27:45.894Z,10.00
2018-10-03T03:30:14.268Z,10.00
2018-10-03T03:32:42.638Z,10.00
2018-10-03T03:35:10.983Z,10.00
2018-10-03T03:37:39.362Z,10.00
2018-10-03T03:40:07.723Z,10.00
2018-10-03T03:42:36.195Z,10.00
2018-10-03T03:45:04.609Z,10.00
2018-10-03T03:47:33.069Z,10.00
2018-10-03T03:50:01.455Z,10.00
2018-10-03T03:52:29.877Z,10.00
2018-10-03T03:54:58.291Z,10.00
2018-10-03T03:57:26.650Z,10.00
2018-10-03T03:59:55.033Z,10.00
2018-10-03T04:02:23.424Z,10.00
2018-10-03T04:04:51.784Z,10.00
2018-10-03T04:07:20.191Z,10.10
2018-10-03T04:09:48.529Z,10.00
2018-10-03T04:12:16.961Z,10.10
2018-10-03T04:14:45.318Z,10.00
2018-10-03T04:17:13.729Z,10.00
2018-10-03T04:19:42.122Z,10.00
2018-10-03T04:22:10.536Z,10.00
2018-10-03T04:24:38.900Z,10.00
2018-10-03T04:27:07.312Z,10.00
2018-10-03T04:29:35.656Z,10.00
2018-10-03T04:32:04.069Z,10.00
2018-10-03T04:34:32.475Z,10.00
2018-10-03T04:37:00.866Z,10.10
2018-10-03T04:39:29.204Z,10.10
2018-10-03T04:41:57.592Z,10.10
2018-10-03T04:44:25.967Z,10.10
2018-10-03T04:46:54.370Z,10.00
2018-10-03T04:49:22.765Z,10.00
2018-10-03T04:51:51.146Z,10.00
2018-10-03T04:54:19.527Z,10.00
2018-10-03T04:56:48.018Z,9.90
2018-10-03T04:59:16.552Z,9.90
2018-10-03T05:01:44.996Z,9.90
2018-10-03T05:04:13.376Z,10.00
2018-10-03T05:06:41.878Z,10.00
2018-10-03T05:09:10.239Z,10.00
2018-10-03T05:11:38.611Z,10.10
2018-10-03T05:14:06.987Z,10.10
2018-10-03T05:16:35.380Z,10.10
2018-10-03T05:19:03.883Z,10.00
2018-10-03T05:21:32.337Z,10.00
2018-10-03T05:24:00.762Z,10.00
2018-10-03T05:26:29.227Z,10.00
2018-10-03T05:28:57.665Z,10.00
2018-10-03T05:31:26.075Z,10.00
2018-10-03T05:33:54.709Z,10.00
2018-10-03T05:36:23.076Z,10.00
2018-10-03T05:38:51.468Z,10.00
2018-10-03T05:41:19.881Z,10.00
2018-10-03T05:43:48.352Z,9.90
2018-10-03T05:46:16.739Z,10.00
2018-10-03T05:48:45.406Z,10.00
2018-10-03T05:51:13.919Z,10.00
2018-10-03T05:53:42.530Z,10.00
2018-10-03T05:56:11.109Z,10.00
2018-10-03T05:58:39.606Z,10.00
2018-10-03T06:01:08.022Z,10.10
2018-10-03T06:03:36.423Z,10.10
2018-10-03T06:06:05.019Z,10.10
2018-10-03T06:08:33.554Z,10.10
2018-10-03T06:11:01.974Z,10.10
2018-10-03T06:13:30.572Z,10.10
2018-10-03T06:15:59.424Z,10.10
2018-10-03T06:18:27.897Z,10.10
2018-10-03T06:20:56.840Z,10.20
2018-10-03T06:23:25.359Z,10.20
2018-10-03T06:25:53.893Z,10.20
2018-10-03T06:28:22.436Z,10.30
2018-10-03T06:30:50.805Z,10.30
2018-10-03T06:33:19.351Z,10.40
2018-10-03T06:35:47.744Z,10.40
2018-10-03T06:38:16.186Z,10.30
2018-10-03T06:40:44.577Z,10.40
2018-10-03T06:43:12.994Z,10.40
2018-10-03T06:45:41.621Z,10.40
2018-10-03T06:48:10.005Z,10.40
2018-10-03T06:50:38.394Z,10.50
2018-10-03T06:53:07.295Z,10.50
2018-10-03T06:55:35.686Z,10.40
2018-10-03T06:58:04.134Z,10.40
2018-10-03T07:00:32.597Z,10.40
2018-10-03T07:03:01.000Z,10.40
2018-10-03T07:05:29.584Z,10.50
2018-10-03T07:07:58.063Z,10.50
2018-10-03T07:10:26.500Z,10.50
2018-10-03T07:12:54.936Z,10.50
2018-10-03T07:15:23.446Z,10.60
2018-10-03T07:17:51.863Z,10.60
2018-10-03T07:20:20.312Z,10.70
2018-10-03T07:22:48.739Z,10.70
2018-10-03T07:25:17.121Z,10.80
2018-10-03T07:27:45.493Z,10.90
2018-10-03T07:30:13.921Z,10.90
2018-10-03T07:32:42.356Z,10.90
2018-10-03T07:35:10.760Z,10.80
2018-10-03T07:37:39.133Z,10.90
2018-10-03T07:40:07.639Z,10.80
2018-10-03T07:42:36.032Z,10.80
2018-10-03T07:45:04.532Z,10.90
2018-10-03T07:47:33.191Z,11.20
2018-10-03T07:50:01.645Z,11.50
2018-10-03T07:52:30.060Z,11.60
2018-10-03T07:54:58.500Z,11.60
2018-10-03T07:57:26.864Z,11.80
2018-10-03T07:59:55.278Z,11.80
2018-10-03T08:02:23.643Z,11.50
2018-10-03T08:04:58.877Z,11.50
2018-10-03T08:07:27.255Z,11.80
2018-10-03T08:09:55.666Z,12.00
2018-10-03T08:12:24.079Z,11.90
2018-10-03T08:14:52.586Z,11.70
2018-10-03T08:17:21.080Z,11.50
2018-10-03T08:19:49.499Z,11.60
2018-10-03T08:22:17.918Z,11.70
2018-10-03T08:24:46.488Z,11.90
2018-10-03T08:27:15.099Z,12.20
2018-10-03T08:29:43.607Z,12.20
2018-10-03T08:32:12.014Z,12.40
2018-10-03T08:34:40.442Z,12.40
2018-10-03T08:37:08.841Z,12.80
2018-10-03T08:39:37.456Z,13.00
2018-10-03T08:42:05.968Z,12.90
2018-10-03T08:44:34.369Z,12.90
2018-10-03T08:47:02.925Z,12.70
2018-10-03T08:49:31.409Z,12.50
2018-10-03T08:51:59.912Z,12.30
2018-10-03T08:54:28.309Z,12.30
2018-10-03T08:56:56.826Z,12.30
2018-10-03T08:59:25.240Z,12.40
2018-10-03T09:01:53.677Z,12.40
2018-10-03T09:04:23.157Z,12.40
2018-10-03T09:06:51.562Z,12.40
2018-10-03T09:09:20.067Z,12.40
2018-10-03T09:11:48.555Z,12.50
2018-10-03T09:14:16.933Z,12.40
2018-10-03T09:16:45.456Z,12.40
2018-10-03T09:19:13.907Z,12.40
2018-10-03T09:21:42.405Z,12.60
2018-10-03T09:24:10.840Z,12.50
2018-10-03T09:26:39.371Z,12.50
2018-10-03T09:29:07.895Z,12.40
2018-10-03T09:31:36.447Z,12.60
2018-10-03T09:34:04.889Z,12.90
2018-10-03T09:36:33.298Z,13.00
2018-10-03T09:39:01.682Z,13.00
2018-10-03T09:41:30.164Z,13.10
2018-10-03T09:43:58.561Z,13.20
2018-10-03T09:46:27.017Z,13.20
2018-10-03T09:48:55.400Z,13.20
2018-10-03T09:51:23.829Z,13.10
2018-10-03T09:53:52.533Z,13.10
2018-10-03T09:56:21.005Z,13.40
2018-10-03T09:58:49.406Z,13.20
2018-10-03T10:01:23.135Z,13.00
2018-10-03T10:03:51.533Z,13.00
2018-10-03T10:06:19.918Z,12.90
2018-10-03T10:08:48.366Z,12.90
2018-10-03T10:11:16.882Z,12.90
2018-10-03T10:13:45.358Z,13.10
2018-10-03T10:16:13.796Z,13.10
2018-10-03T10:18:42.248Z,13.10
2018-10-03T10:21:10.812Z,13.40
2018-10-03T10:23:39.314Z,13.40
2018-10-03T10:26:07.812Z,13.50
2018-10-03T10:28:36.403Z,13.30
2018-10-03T10:31:05.035Z,14.00
2018-10-03T10:33:33.423Z,14.10
2018-10-03T10:36:01.846Z,14.00
2018-10-03T10:38:30.252Z,13.60
2018-10-03T10:40:58.796Z,13.30
2018-10-03T10:43:27.302Z,13.10
2018-10-03T10:45:55.665Z,13.00
2018-10-03T10:48:24.180Z,13.00
2018-10-03T10:50:52.744Z,13.30
2018-10-03T10:53:21.136Z,13.50
2018-10-03T10:55:49.728Z,13.50
2018-10-03T10:58:18.198Z,14.20
2018-10-03T11:00:46.741Z,14.80
2018-10-03T11:03:15.205Z,14.80
2018-10-03T11:05:43.869Z,14.40
2018-10-03T11:08:12.356Z,14.00
2018-10-03T11:10:40.769Z,13.60
2018-10-03T11:13:09.219Z,13.10
2018-10-03T11:15:37.603Z,12.60
2018-10-03T11:18:06.027Z,12.30
2018-10-03T11:20:34.585Z,12.20
2018-10-03T11:23:03.308Z,12.10
2018-10-03T11:25:31.812Z,12.00
2018-10-03T11:28:00.298Z,12.00
2018-10-03T11:30:29.206Z,12.50
2018-10-03T11:32:57.605Z,13.30
2018-10-03T11:35:26.338Z,13.90
2018-10-03T11:37:55.131Z,14.00
2018-10-03T11:40:24.696Z,13.80
2018-10-03T11:42:55.118Z,13.80
2018-10-03T11:45:23.753Z,13.90
2018-10-03T11:47:52.265Z,14.60
2018-10-03T11:50:20.814Z,14.70
2018-10-03T11:52:54.632Z,14.40
2018-10-03T11:55:25.245Z,14.10
2018-10-03T11:57:53.739Z,14.70
2018-10-03T12:00:22.137Z,15.30
2018-10-03T12:02:50.748Z,15.80
2018-10-03T12:05:19.119Z,16.50
2018-10-03T12:07:47.906Z,17.10
2018-10-03T12:10:16.231Z,17.70
2018-10-03T12:12:44.702Z,17.90
2018-10-03T12:15:13.685Z,17.90
2018-10-03T12:17:44.492Z,17.70
2018-10-03T12:20:15.054Z,16.90
2018-10-03T12:22:44.380Z,16.60
2018-10-03T12:25:18.919Z,16.30
2018-10-03T12:28:07.200Z,16.00
2018-10-03T12:31:14.847Z,15.90
2018-10-03T12:33:43.272Z,16.10
2018-10-03T12:36:11.934Z,16.00
2018-10-03T12:38:40.568Z,15.70
2018-10-03T12:41:09.276Z,15.70
2018-10-03T12:43:38.692Z,15.80
2018-10-03T12:46:07.287Z,15.70
2018-10-03T12:48:35.685Z,15.70
2018-10-03T12:51:04.014Z,15.60
2018-10-03T12:53:32.485Z,15.60
2018-10-03T12:56:00.789Z,15.40
2018-10-03T12:58:30.130Z,15.10
2018-10-03T13:00:59.562Z,14.90
2018-10-03T13:03:28.911Z,14.80
2018-10-03T13:05:59.378Z,15.00
2018-10-03T13:08:28.780Z,15.20
2018-10-03T13:11:00.480Z,15.60
2018-10-03T13:13:29.917Z,16.30
2018-10-03T13:15:59.936Z,16.80
2018-10-03T13:18:29.331Z,17.20
2018-10-03T13:20:59.302Z,17.60
2018-10-03T13:23:29.578Z,17.90
2018-10-03T13:25:59.604Z,17.60
2018-10-03T13:28:29.090Z,17.50
2018-10-03T13:30:59.600Z,17.50
2018-10-03T13:33:29.584Z,17.60
2018-10-03T13:36:03.699Z,17.50
2018-10-03T13:38:33.422Z,17.40
2018-10-03T13:41:02.988Z,17.50
2018-10-03T13:43:32.588Z,17.70
2018-10-03T13:46:13.137Z,17.50
2018-10-03T13:48:42.694Z,17.50
2018-10-03T13:51:12.526Z,17.20
2018-10-03T13:53:43.024Z,16.90
2018-10-03T13:56:12.762Z,16.60
2018-10-03T13:58:42.261Z,16.40
2018-10-03T14:01:12.157Z,16.30
2018-10-03T14:03:42.250Z,16.20
2018-10-03T14:06:11.722Z,16.60
2018-10-03T14:08:41.311Z,16.70
2018-10-03T14:11:11.269Z,16.70
2018-10-03T14:13:41.259Z,16.60
2018-10-03T14:16:10.706Z,16.20
2018-10-03T14:18:40.317Z,16.40
2018-10-03T14:21:09.825Z,16.70
2018-10-03T14:23:39.541Z,16.80
2018-10-03T14:26:09.595Z,17.00
2018-10-03T14:28:40.112Z,17.10
2018-10-03T14:31:10.384Z,17.30
2018-10-03T14:33:39.972Z,17.40
2018-10-03T14:36:11.604Z,17.30
2018-10-03T14:38:41.053Z,17.40
2018-10-03T14:41:13.216Z,17.20
2018-10-03T14:43:43.530Z,17.10
2018-10-03T14:46:13.037Z,16.70
2018-10-03T14:48:43.897Z,16.30
2018-10-03T14:51:13.368Z,16.20
2018-10-03T14:53:44.069Z,16.30
2018-10-03T14:56:14.146Z,16.30
2018-10-03T14:58:43.549Z,16.40
2018-10-03T15:01:12.976Z,16.50
2018-10-03T15:03:42.409Z,16.80
2018-10-03T15:06:11.985Z,16.70
2018-10-03T15:08:41.380Z,16.70
2018-10-03T15:11:11.279Z,16.90
2018-10-03T15:13:40.799Z,16.70
2018-10-03T15:16:10.938Z,16.40
2018-10-03T15:18:40.189Z,16.20
2018-10-03T15:21:09.503Z,15.90
2018-10-03T15:23:38.890Z,16.00
2018-10-03T15:26:08.291Z,16.30
2018-10-03T15:28:37.665Z,16.30
2018-10-03T15:31:06.944Z,16.40
2018-10-03T15:33:35.373Z,16.60
2018-10-03T15:36:03.917Z,16.60
2018-10-03T15:38:32.390Z,16.60
2018-10-03T15:41:00.906Z,16.50
2018-10-03T15:43:29.295Z,16.50
2018-10-03T15:45:57.761Z,16.30
2018-10-03T15:48:26.206Z,16.00
2018-10-03T15:50:54.686Z,15.70
2018-10-03T15:53:23.093Z,15.40
2018-10-03T15:55:51.473Z,15.50
2018-10-03T15:58:19.937Z,15.40
2018-10-03T16:00:50.729Z,15.20
2018-10-03T16:03:19.571Z,15.10
2018-10-03T16:05:47.962Z,15.00
2018-10-03T16:08:16.368Z,14.80
2018-10-03T16:10:44.955Z,14.50
2018-10-03T16:13:13.401Z,14.30
2018-10-03T16:15:41.822Z,14.20
2018-10-03T16:18:10.537Z,14.10
2018-10-03T16:20:38.987Z,14.10
2018-10-03T16:23:07.433Z,14.00
2018-10-03T16:25:35.874Z,13.90
2018-10-03T16:28:04.326Z,13.80
2018-10-03T16:30:32.759Z,13.70
2018-10-03T16:33:01.177Z,13.60
2018-10-03T16:35:30.843Z,13.40
2018-10-03T16:37:59.355Z,13.40
2018-10-03T16:40:27.833Z,13.30
2018-10-03T16:42:56.418Z,13.10
2018-10-03T16:45:24.815Z,12.90
2018-10-03T16:47:53.502Z,12.90
2018-10-03T16:50:21.893Z,12.80
2018-10-03T16:52:50.307Z,12.80
2018-10-03T16:55:18.731Z,12.70
2018-10-03T16:57:47.115Z,12.60
2018-10-03T17:00:15.515Z,12.50
2018-10-03T17:02:44.190Z,12.40
2018-10-03T17:05:12.614Z,12.40
2018-10-03T17:07:41.581Z,12.30
2018-10-03T17:10:09.988Z,12.20
2018-10-03T17:12:38.418Z,12.20
2018-10-03T17:15:07.005Z,12.20
2018-10-03T17:17:35.453Z,12.10
2018-10-03T17:20:03.972Z,12.00
2018-10-03T17:22:32.350Z,12.00
2018-10-03T17:25:00.823Z,12.00
2018-10-03T17:27:29.300Z,11.90
2018-10-03T17:29:57.737Z,11.80
2018-10-03T17:32:26.145Z,11.70
2018-10-03T17:34:54.533Z,11.80
2018-10-03T17:37:25.080Z,11.70
2018-10-03T17:39:53.460Z,11.70
2018-10-03T17:42:21.905Z,11.70
2018-10-03T17:44:50.317Z,11.70
2018-10-03T17:47:18.726Z,11.70
2018-10-03T17:49:47.197Z,11.80
2018-10-03T17:52:15.584Z,11.80
2018-10-03T17:54:45.490Z,11.70
2018-10-03T17:57:14.037Z,11.70
2018-10-03T17:59:42.435Z,11.80
2018-10-03T18:02:13.548Z,11.70
2018-10-03T18:04:42.743Z,11.70
2018-10-03T18:07:11.184Z,11.70
2018-10-03T18:09:39.719Z,11.70
2018-10-03T18:12:08.212Z,11.80
2018-10-03T18:14:36.761Z,11.90
2018-10-03T18:17:05.311Z,11.90
2018-10-03T18:19:33.784Z,11.90
2018-10-03T18:22:02.988Z,11.90
2018-10-03T18:24:31.430Z,11.80
2018-10-03T18:26:59.920Z,11.80
2018-10-03T18:29:28.465Z,11.70
2018-10-03T18:31:56.861Z,11.70
2018-10-03T18:34:25.287Z,11.40
2018-10-03T18:36:53.745Z,11.60
2018-10-03T18:39:22.265Z,11.50
2018-10-03T18:41:50.754Z,11.50
2018-10-03T18:44:19.210Z,11.50
2018-10-03T18:46:47.739Z,11.40
2018-10-03T18:49:16.138Z,11.40
2018-10-03T18:51:44.575Z,11.40
2018-10-03T18:54:13.011Z,11.40
2018-10-03T18:56:41.576Z,11.30
2018-10-03T18:59:10.408Z,11.30
2018-10-03T19:01:38.836Z,11.40
2018-10-03T19:04:08.266Z,11.30
2018-10-03T19:06:36.931Z,11.30
2018-10-03T19:09:08.309Z,11.20
2018-10-03T19:11:36.892Z,11.10
2018-10-03T19:14:05.486Z,11.10
2018-10-03T19:16:33.951Z,11.10
2018-10-03T19:19:02.902Z,11.00
2018-10-03T19:21:31.624Z,11.00
2018-10-03T19:24:00.371Z,10.90
2018-10-03T19:26:28.927Z,10.90
2018-10-03T19:28:57.456Z,10.90
2018-10-03T19:31:25.899Z,10.80
2018-10-03T19:33:54.483Z,10.80
2018-10-03T19:36:22.894Z,10.80
2018-10-03T19:38:51.602Z,10.80
2018-10-03T19:41:20.065Z,10.70
2018-10-03T19:43:48.677Z,10.70
2018-10-03T19:46:17.069Z,10.60
2018-10-03T19:48:45.477Z,10.60
2018-10-03T19:51:13.928Z,10.60
2018-10-03T19:53:42.348Z,10.60
2018-10-03T19:56:10.707Z,10.50
2018-10-03T19:58:39.170Z,10.50
2018-10-03T20:01:07.587Z,10.40
2018-10-03T20:03:36.029Z,10.40
2018-10-03T20:06:04.438Z,10.40
2018-10-03T20:08:32.833Z,10.40
2018-10-03T20:11:01.233Z,10.40
2018-10-03T20:13:29.642Z,10.40
2018-10-03T20:15:58.001Z,10.30
2018-10-03T20:18:27.228Z,10.20
2018-10-03T20:20:55.625Z,10.20
2018-10-03T20:23:24.059Z,10.20
2018-10-03T20:25:52.493Z,10.10
2018-10-03T20:28:20.929Z,10.10
2018-10-03T20:30:49.536Z,10.00
2018-10-03T20:33:17.987Z,10.00
2018-10-03T20:35:46.410Z,10.00
2018-10-03T20:38:14.891Z,9.90
2018-10-03T20:40:43.363Z,9.90
2018-10-03T20:43:12.002Z,9.90
2018-10-03T20:45:40.388Z,9.90
2018-10-03T20:48:09.529Z,9.90
2018-10-03T20:50:38.007Z,9.90
2018-10-03T20:53:06.505Z,9.90
2018-10-03T20:55:34.990Z,9.90
2018-10-03T20:58:03.393Z,9.90
2018-10-03T21:00:32.229Z,9.90
2018-10-03T21:03:01.302Z,9.90
2018-10-03T21:05:29.731Z,9.80
2018-10-03T21:07:58.130Z,9.80
2018-10-03T21:10:26.508Z,9.80
2018-10-03T21:12:55.261Z,9.70
2018-10-03T21:15:23.679Z,9.70
2018-10-03T21:17:52.081Z,9.70
2018-10-03T21:20:20.529Z,9.60
2018-10-03T21:22:48.904Z,9.60
2018-10-03T21:25:17.588Z,9.50
2018-10-03T21:27:46.051Z,9.50
2018-10-03T21:30:14.499Z,9.50
2018-10-03T21:32:43.279Z,9.50
2018-10-03T21:35:11.690Z,9.40
2018-10-03T21:37:40.395Z,9.40
2018-10-03T21:40:08.877Z,9.40
2018-10-03T21:42:37.314Z,9.30
2018-10-03T21:45:06.242Z,9.40
2018-10-03T21:47:34.635Z,9.40
2018-10-03T21:50:05.091Z,9.40
2018-10-03T21:52:33.662Z,9.40
2018-10-03T21:55:10.442Z,9.40
2018-10-03T21:57:38.840Z,9.40
2018-10-03T22:00:08.021Z,9.40
2018-10-03T22:02:36.572Z,9.40
2018-10-03T22:05:07.403Z,9.40
2018-10-03T22:07:35.949Z,9.40
2018-10-03T22:10:04.500Z,9.40
2018-10-03T22:12:32.866Z,9.40
2018-10-03T22:15:01.257Z,9.40
2018-10-03T22:17:29.664Z,9.40
2018-10-03T22:19:58.094Z,9.30
2018-10-03T22:22:26.541Z,9.40
2018-10-03T22:24:54.921Z,9.40
2018-10-03T22:27:23.289Z,9.40
2018-10-03T22:29:51.695Z,9.40
2018-10-03T22:32:20.029Z,9.40
2018-10-03T22:34:48.441Z,9.40
2018-10-03T22:37:16.793Z,9.40
2018-10-03T22:39:45.171Z,9.40
2018-10-03T22:42:13.555Z,9.40
2018-10-03T22:44:41.932Z,9.40
2018-10-03T22:47:10.352Z,9.40
2018-10-03T22:49:38.827Z,9.40
2018-10-03T22:52:07.210Z,9.40
2018-10-03T22:54:35.663Z,9.40
2018-10-03T22:57:04.104Z,9.40
2018-10-03T22:59:33.148Z,9.40
2018-10-03T23:02:02.066Z,9.50
2018-10-03T23:04:30.493Z,9.50
2018-10-03T23:06:58.954Z,9.40
2018-10-03T23:09:27.314Z,9.40
2018-10-03T23:11:56.091Z,9.50
2018-10-03T23:14:25.393Z,9.50
2018-10-03T23:16:53.790Z,9.50
2018-10-03T23:19:22.158Z,9.50
2018-10-03T23:21:50.613Z,9.50
2018-10-03T23:24:18.957Z,9.50
2018-10-03T23:26:47.450Z,9.40
2018-10-03T23:29:15.836Z,9.40
2018-10-03T23:31:44.362Z,9.40
2018-10-03T23:34:12.794Z,9.40
2018-10-03T23:36:41.209Z,9.40
2018-10-03T23:39:11.263Z,9.40
2018-10-03T23:41:39.844Z,9.40
2018-10-03T23:44:08.360Z,9.40
2018-10-03T23:46:36.720Z,9.40
2018-10-03T23:49:05.298Z,9.50
2018-10-03T23:51:33.737Z,9.50
2018-10-03T23:54:02.186Z,9.50
2018-10-03T23:56:30.595Z,9.60
2018-10-03T23:58:58.951Z,9.60
